Vancouver, British Columbia

03:02 PM PDT on Juli 20, 2018 (GMT -0700)
Vancouver | | Change Station

Elev 7 ft 49.18 °N, 123.17 °W | Updated 1 hour ago

Klart
Klart
66 °F
Feels Like 66 °F
N
9
Vind Växlande Vind from SV

Idag
High -- | Low -- °F
--% Chance of Precip.
Yesterday
High -- | Low -- °F
Precip. -- tum
Lufttryck 30.17 tum
Sikt 30.0 miles
Molnigt Few 4500 ft
Few 5500 ft
Daggpunkt 52 °F
Luftfuktighet 60%
Rainfall 0.00 tum
Snow Depth Not available.
5:29 AM 9:07 PM
Första kvarteret, 61% visible
METAR CYVR 202100Z 23008KT 30SM FEW045 FEW055 19/11 A3017 RMK CU1SC1 SC TR SLP217 DENSITY ALT 300FT
Lufttryck 30.17 tum
Sikt 30.0 miles
Molnigt Few 4500 ft
Few 5500 ft
Daggpunkt 52 °F
Luftfuktighet 60%
Rainfall 0.00 tum
Snow Depth Not available.
5:29 AM 9:07 PM
Första kvarteret, 61% visible
METAR CYVR 202100Z 23008KT 30SM FEW045 FEW055 19/11 A3017 RMK CU1SC1 SC TR SLP217 DENSITY ALT 300FT

Get Severe Weather Alerts

Thanks for signing up!

Be on the lookout for a verification email in your inbox.

You'll start receiving the daily forecast at 6 AM.

×

10-Day Weather Forecast

Almanac

Astronomi

Jul. 20, 2018 Rise Set
Actual Time
Civil Twilight
Nautical Twilight
Astronomical Twilight
Månen
Length Of Visible Light
Dagens längd
Tomorrow will be .
, % of the Moon is Illuminated

Today's Extremes

Country Highs Country Lows

Community

WunderPhotos

Category 6

Welcome to Category 6. This is the collective home for Weather Underground's featured writeups by Dr. Jeff Masters (right), Bob Henson (left), Chris Burt, and other regular contributors.

Nearby

Air Quality

  Air Quality AQ Index Pollutant
Not available.

Snödjup

Station Depth Elevation

Earthquake Activity

Stad Distance Mag. Time & Date
Minimum magnitude displayed is 2.5.

Coastal Water Temperatures

Plats Temperatur

Stations

Nearby Weather Stations

Station Location Temp Vindavkylning Daggpunkt Luftfuktighet Vind Precip. Elev Uppdaterad Type
                   

Watches & Warnings

There are currently no watches in effect.